Time;durP1;ratioP1;P1;durP2;ratioP2;P2;SDS_P1;SDS_P2;PMS_P1;PMS_P2;Temp;Humidity;BMP_temperature;BMP_pressure;BME280_temperature;BME280_humidity;BME280_pressure;Samples;Min_cycle;Max_cycle;Signal;HPM_P1;HPM_P2
2021/08/25 00:02:19;;;;;;;12.13;7.55;;;;;;;;;;5125954;27;20054;-71
2021/08/25 00:04:47;;;;;;;10.77;6.45;;;;;;;;;;5133210;27;20051;-72
2021/08/25 00:07:14;;;;;;;9.93;6.80;;;;;;;;;;5132908;27;20047;-71
2021/08/25 00:09:42;;;;;;;9.80;7.03;;;;;;;;;;5133027;27;20095;-71
2021/08/25 00:12:10;;;;;;;10.40;7.75;;;;;;;;;;5132861;27;20066;-71
2021/08/25 00:14:37;;;;;;;10.63;6.95;;;;;;;;;;5132921;27;20070;-71
2021/08/25 00:17:04;;;;;;;11.70;6.82;;;;;;;;;;5132943;27;20043;-71
2021/08/25 00:19:31;;;;;;;9.80;7.43;;;;;;;;;;5132567;27;20047;-71
2021/08/25 00:21:59;;;;;;;10.07;7.30;;;;;;;;;;5132589;27;20055;-71
2021/08/25 00:24:25;;;;;;;9.30;7.15;;;;;;;;;;5132828;27;20533;-71
2021/08/25 00:26:52;;;;;;;11.63;7.95;;;;;;;;;;5132625;27;20051;-71
2021/08/25 00:29:18;;;;;;;9.60;6.75;;;;;;;;;;5132596;27;20144;-72
2021/08/25 00:31:45;;;;;;;11.60;8.48;;;;;;;;;;5131976;27;20050;-71
2021/08/25 00:34:11;;;;;;;10.35;7.10;;;;;;;;;;5130759;27;20054;-71
2021/08/25 00:36:38;;;;;;;11.52;6.93;;;;;;;;;;5132388;27;20047;-71
2021/08/25 00:39:06;;;;;;;11.52;7.28;;;;;;;;;;5132576;28;20142;-71
2021/08/25 00:41:32;;;;;;;10.45;7.28;;;;;;;;;;5132284;27;20039;-71
2021/08/25 00:43:59;;;;;;;12.40;7.50;;;;;;;;;;5132384;28;20047;-71
2021/08/25 00:46:28;;;;;;;12.30;7.55;;;;;;;;;;5132500;28;20413;-71
2021/08/25 00:48:55;;;;;;;10.50;7.00;;;;;;;;;;5132636;28;20051;-71
2021/08/25 00:51:23;;;;;;;10.90;7.20;;;;;;;;;;5132466;28;20047;-71
2021/08/25 00:53:49;;;;;;;10.57;7.15;;;;;;;;;;5132710;28;20054;-71
2021/08/25 00:56:17;;;;;;;10.35;7.45;;;;;;;;;;5132509;28;20047;-71
2021/08/25 00:58:45;;;;;;;9.82;7.65;;;;;;;;;;5132354;28;20083;-71
2021/08/25 01:01:14;;;;;;;11.50;7.55;;;;;;;;;;5132533;28;20669;-71
2021/08/25 01:03:44;;;;;;;10.60;7.93;;;;;;;;;;5132193;28;20051;-70
2021/08/25 01:06:11;;;;;;;11.32;7.70;;;;;;;;;;5132389;28;20384;-71
2021/08/25 01:08:38;;;;;;;12.88;8.77;;;;;;;;;;5132605;28;20406;-69
2021/08/25 01:11:06;;;;;;;12.73;8.85;;;;;;;;;;5132093;28;20047;-70
2021/08/25 01:13:35;;;;;;;14.95;9.23;;;;;;;;;;5132135;28;20047;-70
2021/08/25 01:16:01;;;;;;;12.95;8.40;;;;;;;;;;5132392;28;20051;-70
2021/08/25 01:18:28;;;;;;;11.40;8.43;;;;;;;;;;5132139;28;20475;-70
2021/08/25 01:20:54;;;;;;;11.90;8.38;;;;;;;;;;5132121;28;20050;-70
2021/08/25 01:23:22;;;;;;;12.23;8.63;;;;;;;;;;5132329;28;20407;-70
2021/08/25 01:25:49;;;;;;;11.65;8.35;;;;;;;;;;5132151;28;20066;-70
2021/08/25 01:28:19;;;;;;;13.68;9.10;;;;;;;;;;5132256;28;20129;-69
2021/08/25 01:30:47;;;;;;;11.35;8.30;;;;;;;;;;5132395;28;20047;-70
2021/08/25 01:33:18;;;;;;;14.88;8.80;;;;;;;;;;5130801;28;20040;-70
2021/08/25 01:35:44;;;;;;;13.13;8.75;;;;;;;;;;5130959;28;20047;-70
2021/08/25 01:38:20;;;;;;;11.90;8.23;;;;;;;;;;5131849;28;20039;-70
2021/08/25 01:40:47;;;;;;;11.10;8.18;;;;;;;;;;5131789;28;20051;-70
2021/08/25 01:43:13;;;;;;;12.65;7.97;;;;;;;;;;5132282;28;20139;-70
2021/08/25 01:45:40;;;;;;;12.13;8.38;;;;;;;;;;5131911;28;20047;-70
2021/08/25 01:48:08;;;;;;;10.85;8.40;;;;;;;;;;5132087;28;20069;-70
2021/08/25 01:50:34;;;;;;;15.50;8.52;;;;;;;;;;5131996;28;20058;-70
2021/08/25 01:53:01;;;;;;;10.55;8.00;;;;;;;;;;5133919;27;20487;-70
2021/08/25 01:55:27;;;;;;;12.57;8.32;;;;;;;;;;5135569;27;20050;-70
2021/08/25 01:57:53;;;;;;;12.38;8.32;;;;;;;;;;5135715;27;20456;-70
2021/08/25 02:00:20;;;;;;;12.63;7.97;;;;;;;;;;5135100;27;20650;-70
2021/08/25 02:02:46;;;;;;;12.65;8.02;;;;;;;;;;5135270;27;20047;-70
2021/08/25 02:05:14;;;;;;;15.35;8.73;;;;;;;;;;5135330;27;20472;-70
2021/08/25 02:07:41;;;;;;;12.20;7.97;;;;;;;;;;5135331;27;20051;-70
2021/08/25 02:10:08;;;;;;;10.80;7.35;;;;;;;;;;5135065;27;20093;-70
2021/08/25 02:12:35;;;;;;;11.93;7.72;;;;;;;;;;5135495;27;20053;-70
2021/08/25 02:15:01;;;;;;;11.20;7.53;;;;;;;;;;5135273;27;20482;-70
2021/08/25 02:17:28;;;;;;;10.18;7.65;;;;;;;;;;5135113;27;20389;-70
2021/08/25 02:19:54;;;;;;;10.98;7.90;;;;;;;;;;5135169;27;20043;-70
2021/08/25 02:22:22;;;;;;;11.75;7.25;;;;;;;;;;5134808;27;20051;-70
2021/08/25 02:24:48;;;;;;;12.50;7.47;;;;;;;;;;5135280;27;20058;-69
2021/08/25 02:27:15;;;;;;;13.32;8.25;;;;;;;;;;5134789;27;20055;-70
2021/08/25 02:29:41;;;;;;;13.70;8.10;;;;;;;;;;5134918;27;20069;-70
2021/08/25 02:32:08;;;;;;;12.70;8.13;;;;;;;;;;5134615;27;20415;-70
2021/08/25 02:34:35;;;;;;;11.65;8.13;;;;;;;;;;5134000;27;20047;-70
2021/08/25 02:37:01;;;;;;;12.38;8.38;;;;;;;;;;5133947;27;20480;-70
2021/08/25 02:39:29;;;;;;;10.85;7.38;;;;;;;;;;5134580;27;20129;-70
2021/08/25 02:41:55;;;;;;;11.02;8.25;;;;;;;;;;5134786;27;20055;-70
2021/08/25 02:44:22;;;;;;;15.55;9.18;;;;;;;;;;5134717;27;20051;-70
2021/08/25 02:46:48;;;;;;;14.55;8.30;;;;;;;;;;5134636;27;20047;-70
2021/08/25 02:49:15;;;;;;;12.20;8.63;;;;;;;;;;5134611;27;20043;-70
2021/08/25 02:51:41;;;;;;;12.30;7.75;;;;;;;;;;5134273;27;20058;-70
2021/08/25 02:54:08;;;;;;;13.85;8.98;;;;;;;;;;5134423;27;20047;-70
2021/08/25 02:56:36;;;;;;;16.00;9.57;;;;;;;;;;5133837;27;20070;-69
2021/08/25 02:59:03;;;;;;;11.93;7.78;;;;;;;;;;5134585;27;20274;-70
2021/08/25 03:01:29;;;;;;;10.30;7.97;;;;;;;;;;5133510;27;20047;-70
2021/08/25 03:03:55;;;;;;;12.50;8.68;;;;;;;;;;5133536;27;20055;-70
2021/08/25 03:06:22;;;;;;;13.00;8.30;;;;;;;;;;5134048;27;20051;-70
2021/08/25 03:08:48;;;;;;;11.80;8.18;;;;;;;;;;5134156;27;20047;-70
2021/08/25 03:11:15;;;;;;;13.57;8.50;;;;;;;;;;5134356;27;20482;-70
2021/08/25 03:13:43;;;;;;;12.80;9.05;;;;;;;;;;5134057;27;20529;-70
2021/08/25 03:16:09;;;;;;;17.88;9.65;;;;;;;;;;5134021;27;20069;-70
2021/08/25 03:18:36;;;;;;;13.15;8.18;;;;;;;;;;5134073;27;20043;-70
2021/08/25 03:21:03;;;;;;;11.82;8.32;;;;;;;;;;5133863;27;20039;-70
2021/08/25 03:23:29;;;;;;;13.80;9.10;;;;;;;;;;5133773;27;20047;-70
2021/08/25 03:25:56;;;;;;;16.85;9.57;;;;;;;;;;5133700;27;20055;-70
2021/08/25 03:28:22;;;;;;;12.90;8.55;;;;;;;;;;5133673;27;20407;-70
2021/08/25 03:30:50;;;;;;;13.25;8.50;;;;;;;;;;5133586;27;20047;-70
2021/08/25 03:33:16;;;;;;;13.77;9.48;;;;;;;;;;5133455;27;20077;-70
2021/08/25 03:35:43;;;;;;;15.38;9.38;;;;;;;;;;5133102;27;20062;-70
2021/08/25 03:38:09;;;;;;;15.35;10.23;;;;;;;;;;5129945;27;20058;-71
2021/08/25 03:40:36;;;;;;;14.35;10.00;;;;;;;;;;5133581;27;20047;-70
2021/08/25 03:43:02;;;;;;;14.10;9.85;;;;;;;;;;5133510;27;20050;-70
2021/08/25 03:45:29;;;;;;;13.45;10.07;;;;;;;;;;5133377;27;20055;-70
2021/08/25 03:47:57;;;;;;;17.98;10.65;;;;;;;;;;5133281;27;20057;-70
2021/08/25 03:50:23;;;;;;;16.55;9.93;;;;;;;;;;5133371;27;20053;-70
2021/08/25 03:52:50;;;;;;;16.30;9.95;;;;;;;;;;5133416;27;20054;-70
2021/08/25 03:55:16;;;;;;;15.65;9.20;;;;;;;;;;5133221;27;20054;-70
2021/08/25 03:57:43;;;;;;;16.90;10.60;;;;;;;;;;5132951;27;20043;-70
2021/08/25 04:00:10;;;;;;;14.10;9.43;;;;;;;;;;5133158;27;20486;-70
2021/08/25 04:02:36;;;;;;;12.70;8.73;;;;;;;;;;5132994;27;20482;-70
2021/08/25 04:05:05;;;;;;;17.00;11.18;;;;;;;;;;5133168;27;20049;-70
2021/08/25 04:07:32;;;;;;;13.80;9.27;;;;;;;;;;5133125;27;20494;-70
2021/08/25 04:09:58;;;;;;;17.42;10.57;;;;;;;;;;5133107;27;20039;-73
2021/08/25 04:12:25;;;;;;;17.83;10.68;;;;;;;;;;5132745;27;20047;-70
2021/08/25 04:14:51;;;;;;;15.95;10.25;;;;;;;;;;5132391;27;20420;-70
2021/08/25 04:17:17;;;;;;;14.90;10.32;;;;;;;;;;5132994;27;20407;-70
2021/08/25 04:19:44;;;;;;;18.83;10.88;;;;;;;;;;5132558;27;20062;-70
2021/08/25 04:22:12;;;;;;;14.27;10.32;;;;;;;;;;5133016;27;20055;-70
2021/08/25 04:24:38;;;;;;;14.90;10.10;;;;;;;;;;5132922;27;20382;-70
2021/08/25 04:27:06;;;;;;;14.25;10.30;;;;;;;;;;5132824;27;20499;-70
2021/08/25 04:29:32;;;;;;;15.15;10.00;;;;;;;;;;5132460;27;20046;-70
2021/08/25 04:31:58;;;;;;;13.35;9.07;;;;;;;;;;5132807;27;20078;-70
2021/08/25 04:34:25;;;;;;;14.77;9.88;;;;;;;;;;5132573;27;20047;-70
2021/08/25 04:36:51;;;;;;;15.38;9.48;;;;;;;;;;5131765;27;20066;-70
2021/08/25 04:39:19;;;;;;;18.38;9.57;;;;;;;;;;5131512;28;20050;-70
2021/08/25 04:41:46;;;;;;;14.48;9.48;;;;;;;;;;5132473;28;20491;-70
2021/08/25 04:44:12;;;;;;;13.75;9.73;;;;;;;;;;5132619;28;20464;-70
2021/08/25 04:46:39;;;;;;;15.40;10.60;;;;;;;;;;5132626;28;20057;-70
2021/08/25 04:49:05;;;;;;;15.82;9.43;;;;;;;;;;5132951;28;20040;-70
2021/08/25 04:51:32;;;;;;;15.23;8.82;;;;;;;;;;5132499;28;20050;-70
2021/08/25 04:53:58;;;;;;;14.55;9.23;;;;;;;;;;5132422;28;20047;-70
2021/08/25 04:56:26;;;;;;;16.63;10.15;;;;;;;;;;5132207;28;20055;-70
2021/08/25 04:58:53;;;;;;;15.80;9.98;;;;;;;;;;5132138;28;20053;-70
2021/08/25 05:01:19;;;;;;;15.07;10.23;;;;;;;;;;5131734;28;20158;-70
2021/08/25 05:03:45;;;;;;;14.65;9.90;;;;;;;;;;5132321;28;20058;-70
2021/08/25 05:06:12;;;;;;;19.35;10.65;;;;;;;;;;5132312;28;20047;-70
2021/08/25 05:08:39;;;;;;;14.32;9.57;;;;;;;;;;5132643;28;20054;-70
2021/08/25 05:11:08;;;;;;;14.82;10.73;;;;;;;;;;5113154;28;20055;-70
2021/08/25 05:13:37;;;;;;;16.60;9.32;;;;;;;;;;5125998;28;20052;-69
2021/08/25 05:16:04;;;;;;;15.07;10.18;;;;;;;;;;5127238;28;20043;-70
2021/08/25 05:18:30;;;;;;;16.67;10.25;;;;;;;;;;5131507;28;20047;-69
2021/08/25 05:20:58;;;;;;;14.75;10.40;;;;;;;;;;5132010;28;20039;-70
2021/08/25 05:23:24;;;;;;;17.48;10.75;;;;;;;;;;5117556;28;20066;-72
2021/08/25 05:25:51;;;;;;;13.02;9.65;;;;;;;;;;5128315;28;20055;-70
2021/08/25 05:28:17;;;;;;;15.20;9.57;;;;;;;;;;5115549;28;20051;-70
2021/08/25 05:30:45;;;;;;;15.38;10.13;;;;;;;;;;5128007;27;20051;-70
2021/08/25 05:33:11;;;;;;;16.63;9.98;;;;;;;;;;5136030;27;20054;-70
2021/08/25 05:35:38;;;;;;;15.25;10.50;;;;;;;;;;5135767;27;20044;-70
2021/08/25 05:38:04;;;;;;;14.95;9.77;;;;;;;;;;5134721;27;20411;-69
2021/08/25 05:40:31;;;;;;;14.00;9.30;;;;;;;;;;5135056;27;20054;-69
2021/08/25 05:42:57;;;;;;;14.55;9.50;;;;;;;;;;5135859;27;20051;-70
2021/08/25 05:45:24;;;;;;;12.70;9.18;;;;;;;;;;5136033;27;20051;-69
2021/08/25 05:47:52;;;;;;;12.25;9.02;;;;;;;;;;5135939;27;20107;-69
2021/08/25 05:50:19;;;;;;;13.68;8.88;;;;;;;;;;5135436;27;20046;-69
2021/08/25 05:52:45;;;;;;;15.00;8.73;;;;;;;;;;5135221;27;20071;-70
2021/08/25 05:55:12;;;;;;;13.45;8.15;;;;;;;;;;5134396;27;20055;-69
2021/08/25 05:57:45;;;;;;;12.07;8.43;;;;;;;;;;5134949;27;20054;-69
2021/08/25 06:00:12;;;;;;;10.43;6.55;;;;;;;;;;5134757;27;20445;-69
2021/08/25 06:02:39;;;;;;;10.65;6.97;;;;;;;;;;5134748;27;20467;-69
2021/08/25 06:05:08;;;;;;;12.13;7.30;;;;;;;;;;5134782;27;20419;-69
2021/08/25 06:07:34;;;;;;;8.32;6.38;;;;;;;;;;5134575;27;20144;-69
2021/08/25 06:10:01;;;;;;;10.05;6.82;;;;;;;;;;5134590;27;20043;-69
2021/08/25 06:12:28;;;;;;;10.52;6.35;;;;;;;;;;5135154;27;20051;-69
2021/08/25 06:14:54;;;;;;;10.50;7.10;;;;;;;;;;5135266;27;20043;-69
2021/08/25 06:17:21;;;;;;;10.45;6.00;;;;;;;;;;5135000;27;20047;-69
2021/08/25 06:19:47;;;;;;;8.95;6.00;;;;;;;;;;5134698;27;20043;-69
2021/08/25 06:22:15;;;;;;;8.73;6.07;;;;;;;;;;5134740;27;20070;-69
2021/08/25 06:24:41;;;;;;;10.95;6.10;;;;;;;;;;5134921;27;20047;-70
2021/08/25 06:27:08;;;;;;;11.27;5.57;;;;;;;;;;5134980;27;20047;-69
2021/08/25 06:29:34;;;;;;;9.80;6.25;;;;;;;;;;5134376;27;20043;-70
2021/08/25 06:32:01;;;;;;;10.07;6.30;;;;;;;;;;5134677;27;20054;-69
2021/08/25 06:34:27;;;;;;;7.97;5.25;;;;;;;;;;5134636;27;20066;-70
2021/08/25 06:36:54;;;;;;;8.10;5.47;;;;;;;;;;5134683;27;20051;-70
2021/08/25 06:39:22;;;;;;;8.43;5.00;;;;;;;;;;5132665;27;20043;-70
2021/08/25 06:41:48;;;;;;;9.98;4.90;;;;;;;;;;5134099;27;20121;-69
2021/08/25 06:44:15;;;;;;;8.73;5.90;;;;;;;;;;5134585;27;20066;-69
2021/08/25 06:46:41;;;;;;;8.05;5.68;;;;;;;;;;5134593;27;20054;-69
2021/08/25 06:49:07;;;;;;;8.15;5.20;;;;;;;;;;5134362;27;20394;-70
2021/08/25 06:51:34;;;;;;;6.63;4.60;;;;;;;;;;5134466;27;20058;-69
2021/08/25 06:54:00;;;;;;;6.88;4.70;;;;;;;;;;5134321;27;20058;-69
2021/08/25 06:56:28;;;;;;;8.77;4.90;;;;;;;;;;5134313;27;20058;-69
2021/08/25 06:58:54;;;;;;;7.30;5.18;;;;;;;;;;5134133;27;20042;-70
2021/08/25 07:01:21;;;;;;;8.25;5.40;;;;;;;;;;5133733;27;20054;-70
2021/08/25 07:03:48;;;;;;;7.28;4.85;;;;;;;;;;5134111;27;20051;-69
2021/08/25 07:06:14;;;;;;;8.85;5.03;;;;;;;;;;5134304;27;20495;-70
2021/08/25 07:08:40;;;;;;;7.97;4.95;;;;;;;;;;5133887;27;20062;-69
2021/08/25 07:11:07;;;;;;;10.82;5.57;;;;;;;;;;5133914;27;20047;-69
2021/08/25 07:13:35;;;;;;;6.43;4.72;;;;;;;;;;5133283;27;20051;-69
2021/08/25 07:16:01;;;;;;;7.63;4.88;;;;;;;;;;5133801;27;20127;-69
2021/08/25 07:18:28;;;;;;;5.97;4.15;;;;;;;;;;5133930;27;20047;-69
2021/08/25 07:20:54;;;;;;;7.22;4.43;;;;;;;;;;5133804;27;20047;-69
2021/08/25 07:23:21;;;;;;;6.20;4.25;;;;;;;;;;5133587;27;20058;-70
2021/08/25 07:25:47;;;;;;;5.93;4.03;;;;;;;;;;5133832;27;20050;-69
2021/08/25 07:28:14;;;;;;;7.05;4.63;;;;;;;;;;5133683;27;20058;-69
2021/08/25 07:30:42;;;;;;;8.38;4.80;;;;;;;;;;5133426;27;20054;-69
2021/08/25 07:33:12;;;;;;;7.55;4.90;;;;;;;;;;5133469;27;20062;-69
2021/08/25 07:35:38;;;;;;;7.45;4.80;;;;;;;;;;5133525;27;20104;-69
2021/08/25 07:38:05;;;;;;;8.30;4.72;;;;;;;;;;5133590;27;20050;-69
2021/08/25 07:40:31;;;;;;;6.70;3.78;;;;;;;;;;5132214;27;20045;-69
2021/08/25 07:42:58;;;;;;;6.50;4.10;;;;;;;;;;5133376;27;20046;-69
2021/08/25 07:45:24;;;;;;;8.80;4.03;;;;;;;;;;5133262;27;20070;-69
2021/08/25 07:47:52;;;;;;;7.53;4.22;;;;;;;;;;5127842;27;20043;-69
2021/08/25 07:50:18;;;;;;;7.53;4.30;;;;;;;;;;5124683;27;20051;-69
2021/08/25 07:52:45;;;;;;;5.30;3.58;;;;;;;;;;5112839;28;20047;-69
2021/08/25 07:55:12;;;;;;;6.50;4.10;;;;;;;;;;5112880;28;20051;-69
2021/08/25 07:57:38;;;;;;;9.32;4.28;;;;;;;;;;5112744;28;20051;-70
2021/08/25 08:00:05;;;;;;;5.53;3.92;;;;;;;;;;5131130;27;20039;-69
2021/08/25 08:02:34;;;;;;;5.93;3.80;;;;;;;;;;5133209;27;20054;-69
2021/08/25 08:05:02;;;;;;;6.40;4.20;;;;;;;;;;5133128;27;20788;-69
2021/08/25 08:07:29;;;;;;;6.00;3.00;;;;;;;;;;5132935;27;20054;-69
2021/08/25 08:09:55;;;;;;;7.22;3.70;;;;;;;;;;5132963;27;20046;-69
2021/08/25 08:12:21;;;;;;;6.57;3.17;;;;;;;;;;5132957;27;20411;-69
2021/08/25 08:14:48;;;;;;;8.00;3.92;;;;;;;;;;5132796;27;20396;-69
2021/08/25 08:17:16;;;;;;;6.30;3.25;;;;;;;;;;5132759;27;20136;-69
2021/08/25 08:19:42;;;;;;;7.80;3.45;;;;;;;;;;5132689;27;20043;-69
2021/08/25 08:22:10;;;;;;;5.07;3.35;;;;;;;;;;5132756;27;20693;-69
2021/08/25 08:24:36;;;;;;;6.15;3.38;;;;;;;;;;5132665;27;20050;-69
2021/08/25 08:27:03;;;;;;;6.40;3.58;;;;;;;;;;5132842;27;20047;-69
2021/08/25 08:29:30;;;;;;;5.78;3.38;;;;;;;;;;5132155;27;20050;-69
2021/08/25 08:31:56;;;;;;;6.72;3.58;;;;;;;;;;5132272;27;20054;-69
2021/08/25 08:34:22;;;;;;;5.82;3.13;;;;;;;;;;5132898;27;20490;-69
2021/08/25 08:36:49;;;;;;;7.40;3.53;;;;;;;;;;5132999;27;20375;-69
2021/08/25 08:39:17;;;;;;;4.55;2.50;;;;;;;;;;5132592;27;20043;-69
2021/08/25 08:41:44;;;;;;;4.53;3.15;;;;;;;;;;5130966;27;20997;-69
2021/08/25 08:44:12;;;;;;;5.85;3.42;;;;;;;;;;5127045;28;20066;-69
2021/08/25 08:46:40;;;;;;;5.35;3.03;;;;;;;;;;5132607;28;20051;-69
2021/08/25 08:49:08;;;;;;;4.85;3.10;;;;;;;;;;5132296;28;20087;-69
2021/08/25 08:51:36;;;;;;;5.55;3.35;;;;;;;;;;5132603;28;20051;-69
2021/08/25 08:54:03;;;;;;;6.20;2.97;;;;;;;;;;5132381;28;20043;-69
2021/08/25 08:56:31;;;;;;;5.22;3.20;;;;;;;;;;5132365;28;20055;-69
2021/08/25 08:58:58;;;;;;;5.22;3.08;;;;;;;;;;5132197;28;20489;-69
2021/08/25 09:01:25;;;;;;;4.72;2.80;;;;;;;;;;5133264;27;20395;-69
2021/08/25 09:03:51;;;;;;;5.88;3.53;;;;;;;;;;5136754;27;20422;-69
2021/08/25 09:06:17;;;;;;;5.45;3.15;;;;;;;;;;5135804;27;20480;-69
2021/08/25 09:08:45;;;;;;;4.97;2.70;;;;;;;;;;5136376;27;20539;-69
2021/08/25 09:11:12;;;;;;;4.13;2.67;;;;;;;;;;5135866;27;20416;-69
2021/08/25 09:13:47;;;;;;;3.95;2.67;;;;;;;;;;5136371;27;20043;-69
2021/08/25 09:16:25;;;;;;;6.20;3.15;;;;;;;;;;5136443;27;20043;-69
2021/08/25 09:19:00;;;;;;;5.28;3.25;;;;;;;;;;5136220;27;20078;-69
2021/08/25 09:21:30;;;;;;;5.13;3.38;;;;;;;;;;5136436;27;20055;-69
2021/08/25 09:23:56;;;;;;;7.40;2.75;;;;;;;;;;5136445;27;20051;-69
2021/08/25 09:26:23;;;;;;;5.68;2.90;;;;;;;;;;5136260;27;20058;-69
2021/08/25 09:28:51;;;;;;;6.93;3.47;;;;;;;;;;5135949;27;20403;-69
2021/08/25 09:31:19;;;;;;;7.47;3.35;;;;;;;;;;5135702;27;20047;-69
2021/08/25 09:33:46;;;;;;;6.75;3.35;;;;;;;;;;5136042;27;20467;-69
2021/08/25 09:36:14;;;;;;;6.63;3.80;;;;;;;;;;5135811;27;20047;-69
2021/08/25 09:38:52;;;;;;;6.35;3.97;;;;;;;;;;5135804;27;20058;-69
2021/08/25 09:41:19;;;;;;;6.57;3.83;;;;;;;;;;5135352;27;20070;-69
2021/08/25 09:43:46;;;;;;;8.18;4.13;;;;;;;;;;5134500;27;20072;-69
2021/08/25 09:46:19;;;;;;;7.75;4.05;;;;;;;;;;5135632;27;20621;-69
2021/08/25 09:48:48;;;;;;;9.65;3.90;;;;;;;;;;5135961;27;20562;-69
2021/08/25 09:51:15;;;;;;;7.07;3.88;;;;;;;;;;5135555;27;20047;-69
2021/08/25 09:53:44;;;;;;;6.50;4.30;;;;;;;;;;5135900;27;20047;-69
2021/08/25 09:56:28;;;;;;;8.48;4.40;;;;;;;;;;5135373;27;20058;-69
2021/08/25 09:58:55;;;;;;;7.80;3.95;;;;;;;;;;5134694;27;20464;-69
2021/08/25 10:01:23;;;;;;;8.45;4.18;;;;;;;;;;5134941;27;20047;-69
2021/08/25 10:03:50;;;;;;;7.45;3.70;;;;;;;;;;5135445;27;20480;-69
2021/08/25 10:06:18;;;;;;;7.97;3.95;;;;;;;;;;5135438;27;20093;-69
2021/08/25 10:08:44;;;;;;;6.40;3.85;;;;;;;;;;5135692;27;20051;-69
2021/08/25 10:11:12;;;;;;;6.90;3.92;;;;;;;;;;5135323;27;20047;-69
2021/08/25 10:13:38;;;;;;;5.88;3.25;;;;;;;;;;5134212;27;20080;-69
2021/08/25 10:16:05;;;;;;;7.25;4.30;;;;;;;;;;5135419;27;20044;-69
2021/08/25 10:18:38;;;;;;;7.32;3.90;;;;;;;;;;5135345;27;20050;-70
2021/08/25 10:21:25;;;;;;;6.63;3.50;;;;;;;;;;5134929;27;20039;-69
2021/08/25 10:24:04;;;;;;;10.65;3.80;;;;;;;;;;5134785;27;20419;-69
2021/08/25 10:26:31;;;;;;;7.22;4.03;;;;;;;;;;5134774;27;20053;-69
2021/08/25 10:29:02;;;;;;;7.35;4.18;;;;;;;;;;5134878;27;20051;-69
2021/08/25 10:32:14;;;;;;;8.35;4.15;;;;;;;;;;5134956;27;20046;-69
2021/08/25 10:34:42;;;;;;;7.30;4.57;;;;;;;;;;5127770;27;20085;-69
2021/08/25 10:37:30;;;;;;;7.70;4.43;;;;;;;;;;5134748;27;20490;-69
2021/08/25 10:40:00;;;;;;;7.50;3.83;;;;;;;;;;5114210;28;20043;-69
2021/08/25 10:42:46;;;;;;;6.72;3.88;;;;;;;;;;5122741;27;20061;-69
2021/08/25 10:45:13;;;;;;;8.73;4.22;;;;;;;;;;5122371;27;20054;-69
2021/08/25 10:47:59;;;;;;;7.15;4.05;;;;;;;;;;5123834;27;20066;-69
2021/08/25 10:50:26;;;;;;;7.18;3.80;;;;;;;;;;5128177;27;20051;-70
2021/08/25 10:52:52;;;;;;;6.30;3.97;;;;;;;;;;5128791;27;20127;-70
2021/08/25 10:55:19;;;;;;;6.55;4.45;;;;;;;;;;5117922;27;20057;-69
2021/08/25 10:57:46;;;;;;;7.13;4.05;;;;;;;;;;5133272;27;20043;-69
2021/08/25 11:00:13;;;;;;;8.10;4.60;;;;;;;;;;5134291;27;20547;-69
2021/08/25 11:02:40;;;;;;;9.30;4.65;;;;;;;;;;5134068;27;20047;-69
2021/08/25 11:05:09;;;;;;;6.85;3.83;;;;;;;;;;5133868;27;20046;-69
2021/08/25 11:07:42;;;;;;;7.32;4.07;;;;;;;;;;5134008;27;20043;-69
2021/08/25 11:10:09;;;;;;;8.60;4.30;;;;;;;;;;5134339;27;20051;-69
2021/08/25 11:12:36;;;;;;;6.97;4.50;;;;;;;;;;5128977;27;20047;-69
2021/08/25 11:15:03;;;;;;;7.88;4.25;;;;;;;;;;5133469;27;20070;-69
2021/08/25 11:17:31;;;;;;;8.70;4.25;;;;;;;;;;5124214;27;20047;-69
2021/08/25 11:19:59;;;;;;;7.22;4.35;;;;;;;;;;5113010;28;20472;-69
2021/08/25 11:22:29;;;;;;;6.75;3.53;;;;;;;;;;5113143;28;20471;-69
2021/08/25 11:24:57;;;;;;;6.55;4.20;;;;;;;;;;5112751;28;20142;-69
2021/08/25 11:27:29;;;;;;;8.30;4.50;;;;;;;;;;5114948;27;20052;-69
2021/08/25 11:30:03;;;;;;;7.07;4.65;;;;;;;;;;5133447;27;20133;-69
2021/08/25 11:32:30;;;;;;;6.97;3.78;;;;;;;;;;5133526;27;20043;-69
2021/08/25 11:34:56;;;;;;;6.95;4.20;;;;;;;;;;5133520;27;20047;-70
2021/08/25 11:37:23;;;;;;;8.40;4.80;;;;;;;;;;5133665;27;20474;-69
2021/08/25 11:39:57;;;;;;;7.32;4.07;;;;;;;;;;5133296;27;20051;-69
2021/08/25 11:42:28;;;;;;;8.23;4.80;;;;;;;;;;5133599;27;20043;-69
2021/08/25 11:44:55;;;;;;;7.22;4.25;;;;;;;;;;5131609;27;20475;-69
2021/08/25 11:47:21;;;;;;;7.38;4.20;;;;;;;;;;5132833;27;20059;-69
2021/08/25 11:49:51;;;;;;;8.65;4.93;;;;;;;;;;5133627;27;20053;-69
2021/08/25 11:52:20;;;;;;;7.25;4.68;;;;;;;;;;5133224;27;20051;-69
2021/08/25 11:54:46;;;;;;;7.00;4.25;;;;;;;;;;5132935;27;20091;-69
2021/08/25 11:57:15;;;;;;;7.80;4.20;;;;;;;;;;5132402;27;20476;-71
2021/08/25 12:00:00;;;;;;;7.43;4.15;;;;;;;;;;5112231;28;20054;-69
2021/08/25 12:02:26;;;;;;;7.57;4.27;;;;;;;;;;5111563;28;20062;-69
2021/08/25 12:04:53;;;;;;;7.18;3.85;;;;;;;;;;5112369;28;20503;-69
2021/08/25 12:07:20;;;;;;;6.97;4.47;;;;;;;;;;5112322;28;20047;-69
2021/08/25 12:09:46;;;;;;;7.63;4.63;;;;;;;;;;5112485;28;20473;-69
2021/08/25 12:12:14;;;;;;;7.20;3.80;;;;;;;;;;5112343;28;20089;-69
2021/08/25 12:14:51;;;;;;;7.97;4.72;;;;;;;;;;5112126;28;20054;-69
2021/08/25 12:17:18;;;;;;;7.57;5.25;;;;;;;;;;5112077;28;20058;-69
2021/08/25 12:19:56;;;;;;;9.00;4.05;;;;;;;;;;5112110;28;20056;-69
2021/08/25 12:22:25;;;;;;;7.03;4.22;;;;;;;;;;5112330;28;20043;-69
2021/08/25 12:24:51;;;;;;;8.30;4.50;;;;;;;;;;5111727;28;20101;-70
2021/08/25 12:27:19;;;;;;;7.40;4.40;;;;;;;;;;5115175;27;20058;-69
2021/08/25 12:29:46;;;;;;;8.18;4.28;;;;;;;;;;5132275;27;20086;-69
2021/08/25 12:32:13;;;;;;;6.75;4.40;;;;;;;;;;5132604;27;20066;-69
2021/08/25 12:35:02;;;;;;;8.25;5.28;;;;;;;;;;5132686;27;20412;-69
2021/08/25 12:37:47;;;;;;;9.07;5.10;;;;;;;;;;5132068;27;20051;-70
2021/08/25 12:40:14;;;;;;;;;;;;;;;;;;5126133;27;20403;-70
2021/08/25 12:42:42;;;;;;;9.32;4.68;;;;;;;;;;5122957;27;19920;-69
2021/08/25 12:45:10;;;;;;;7.20;4.60;;;;;;;;;;5125858;28;20134;-69
2021/08/25 12:47:37;;;;;;;9.55;5.45;;;;;;;;;;5130255;28;20047;-70
2021/08/25 12:50:04;;;;;;;7.70;4.32;;;;;;;;;;5123189;28;20078;-69
2021/08/25 12:52:30;;;;;;;9.02;4.88;;;;;;;;;;5132392;28;20047;-69
2021/08/25 12:54:57;;;;;;;8.73;4.10;;;;;;;;;;5119176;28;20048;-69
2021/08/25 12:57:24;;;;;;;7.72;4.63;;;;;;;;;;5111846;28;20092;-70
2021/08/25 12:59:51;;;;;;;8.05;5.60;;;;;;;;;;5132008;28;20058;-69
2021/08/25 13:02:18;;;;;;;6.40;4.35;;;;;;;;;;5131713;28;20054;-69
2021/08/25 13:04:44;;;;;;;9.10;5.10;;;;;;;;;;5132226;28;20057;-70
2021/08/25 13:07:11;;;;;;;8.68;4.95;;;;;;;;;;5132215;28;20043;-70
2021/08/25 13:09:38;;;;;;;6.70;3.97;;;;;;;;;;5132659;28;20051;-70
2021/08/25 13:12:05;;;;;;;9.30;5.00;;;;;;;;;;5132326;28;20043;-69
2021/08/25 13:14:31;;;;;;;8.55;4.35;;;;;;;;;;5132278;28;20487;-69
2021/08/25 13:16:59;;;;;;;7.97;5.25;;;;;;;;;;5132310;28;20464;-69
2021/08/25 13:19:26;;;;;;;9.05;5.00;;;;;;;;;;5131868;28;20058;-69
2021/08/25 13:21:52;;;;;;;9.35;5.00;;;;;;;;;;5132298;28;20074;-69
2021/08/25 13:24:19;;;;;;;8.50;4.65;;;;;;;;;;5132101;28;20051;-69
2021/08/25 13:26:45;;;;;;;6.65;4.40;;;;;;;;;;5132081;28;20619;-70
2021/08/25 13:29:12;;;;;;;9.18;4.80;;;;;;;;;;5132111;28;20051;-69
2021/08/25 13:31:38;;;;;;;8.90;4.55;;;;;;;;;;5131766;28;20047;-70
2021/08/25 13:34:06;;;;;;;6.80;4.32;;;;;;;;;;5131608;28;20504;-70
2021/08/25 13:36:33;;;;;;;7.95;4.32;;;;;;;;;;5131971;28;20047;-70
2021/08/25 13:38:59;;;;;;;10.68;5.28;;;;;;;;;;5132254;28;20079;-70
2021/08/25 13:41:25;;;;;;;7.00;4.40;;;;;;;;;;5131971;28;20050;-70
2021/08/25 13:43:52;;;;;;;7.90;4.25;;;;;;;;;;5131637;28;20043;-70
2021/08/25 13:46:18;;;;;;;7.35;4.90;;;;;;;;;;5127142;28;20051;-70
2021/08/25 13:48:45;;;;;;;10.10;4.78;;;;;;;;;;5128613;27;20475;-70
2021/08/25 13:51:13;;;;;;;7.20;4.30;;;;;;;;;;5130871;27;20050;-70
2021/08/25 13:53:39;;;;;;;8.70;4.75;;;;;;;;;;5129819;27;20059;-70
2021/08/25 13:56:07;;;;;;;7.20;4.15;;;;;;;;;;5131449;27;20051;-70
2021/08/25 13:58:33;;;;;;;7.78;4.50;;;;;;;;;;5132882;27;20065;-70
2021/08/25 14:01:00;;;;;;;8.30;4.75;;;;;;;;;;5125034;27;20050;-69
2021/08/25 14:03:26;;;;;;;8.15;5.32;;;;;;;;;;5132972;27;20055;-70
2021/08/25 14:05:53;;;;;;;8.70;4.82;;;;;;;;;;5134263;27;20051;-70
2021/08/25 14:08:21;;;;;;;8.55;5.32;;;;;;;;;;5134453;27;20047;-70
2021/08/25 14:10:47;;;;;;;8.05;4.38;;;;;;;;;;5134429;27;20043;-70
2021/08/25 14:13:13;;;;;;;10.48;5.07;;;;;;;;;;5134067;27;20058;-70
2021/08/25 14:15:40;;;;;;;9.57;5.85;;;;;;;;;;5134889;27;20077;-70
2021/08/25 14:18:06;;;;;;;8.32;5.63;;;;;;;;;;5135163;27;20051;-69
2021/08/25 14:20:33;;;;;;;6.93;4.45;;;;;;;;;;5135028;27;20058;-70
2021/08/25 14:23:00;;;;;;;8.82;5.45;;;;;;;;;;5132736;27;20046;-70
2021/08/25 14:25:28;;;;;;;8.50;4.97;;;;;;;;;;5129991;27;20670;-70
2021/08/25 14:27:54;;;;;;;8.15;5.03;;;;;;;;;;5133214;27;20499;-70
2021/08/25 14:30:21;;;;;;;13.40;5.00;;;;;;;;;;5134824;27;20047;-68
2021/08/25 14:32:47;;;;;;;6.95;4.35;;;;;;;;;;5114380;28;20039;-67
2021/08/25 14:35:14;;;;;;;7.88;4.18;;;;;;;;;;5127332;27;20054;-67
2021/08/25 14:37:40;;;;;;;8.38;5.00;;;;;;;;;;5129677;27;20054;-68
2021/08/25 14:40:09;;;;;;;9.43;4.85;;;;;;;;;;5134118;27;20051;-67